createdAt,value
2019-05-13T00:00:05.143Z,1.60
2019-05-13T00:02:37.547Z,1.80
2019-05-13T00:05:08.599Z,1.73
2019-05-13T00:07:39.469Z,1.80
2019-05-13T00:10:10.809Z,1.80
2019-05-13T00:12:43.911Z,1.97
2019-05-13T00:15:15.051Z,1.47
2019-05-13T00:17:46.160Z,1.67
2019-05-13T00:20:17.015Z,1.50
2019-05-13T00:22:47.897Z,1.60
2019-05-13T00:25:18.791Z,2.00
2019-05-13T00:27:49.969Z,1.23
2019-05-13T00:30:20.906Z,1.40
2019-05-13T00:32:51.740Z,1.83
2019-05-13T00:35:23.327Z,1.73
2019-05-13T00:37:54.405Z,1.77
2019-05-13T00:40:25.201Z,1.87
2019-05-13T00:42:56.027Z,1.70
2019-05-13T00:45:26.881Z,2.27
2019-05-13T00:47:57.678Z,1.97
2019-05-13T00:50:28.570Z,1.90
2019-05-13T00:52:59.355Z,2.00
2019-05-13T00:55:30.167Z,1.57
2019-05-13T00:58:01.055Z,2.10
2019-05-13T01:00:33.909Z,1.60
2019-05-13T01:03:04.916Z,1.80
2019-05-13T01:05:35.807Z,2.13
2019-05-13T01:08:06.974Z,1.77
2019-05-13T01:10:37.844Z,2.07
2019-05-13T01:13:08.659Z,2.07
2019-05-13T01:15:40.158Z,2.03
2019-05-13T01:18:10.941Z,1.90
2019-05-13T01:20:43.678Z,2.23
2019-05-13T01:23:14.428Z,2.37
2019-05-13T01:25:45.258Z,2.03
2019-05-13T01:28:16.087Z,2.40
2019-05-13T01:30:47.017Z,2.17
2019-05-13T01:33:17.728Z,2.00
2019-05-13T01:35:48.979Z,1.80
2019-05-13T01:38:19.867Z,1.93
2019-05-13T01:40:50.729Z,1.83
2019-05-13T01:43:21.573Z,1.60
2019-05-13T01:45:53.673Z,1.77
2019-05-13T01:48:24.627Z,1.93
2019-05-13T01:50:55.507Z,2.00
2019-05-13T01:53:26.377Z,2.37
2019-05-13T01:55:57.241Z,1.63
2019-05-13T01:58:28.363Z,1.70
2019-05-13T02:00:59.270Z,1.83
2019-05-13T02:03:30.119Z,1.60
2019-05-13T02:06:03.561Z,2.20
2019-05-13T02:08:33.945Z,2.00
2019-05-13T02:11:04.957Z,1.67
2019-05-13T02:13:35.859Z,2.47
2019-05-13T02:16:06.715Z,1.70
2019-05-13T02:18:37.605Z,1.83
2019-05-13T02:21:09.639Z,2.47
2019-05-13T02:23:40.557Z,2.00
2019-05-13T02:26:13.470Z,1.83
2019-05-13T02:28:43.994Z,1.83
2019-05-13T02:31:22.981Z,2.67
2019-05-13T02:33:47.294Z,2.13
2019-05-13T02:36:18.196Z,2.23
2019-05-13T02:38:49.101Z,2.83
2019-05-13T02:41:22.765Z,1.87
2019-05-13T02:43:52.796Z,2.63
2019-05-13T02:46:23.985Z,2.20
2019-05-13T02:48:54.844Z,2.27
2019-05-13T02:51:25.691Z,1.83
2019-05-13T02:53:56.826Z,2.10
2019-05-13T02:56:27.673Z,2.20
2019-05-13T02:58:58.564Z,1.97
2019-05-13T03:01:32.870Z,2.13
2019-05-13T03:04:03.192Z,2.33
2019-05-13T03:06:34.545Z,2.27
2019-05-13T03:09:07.684Z,2.37
2019-05-13T03:11:41.483Z,2.37
2019-05-13T03:14:12.877Z,3.00
2019-05-13T03:16:58.696Z,1.83
2019-05-13T03:19:32.910Z,2.60
2019-05-13T03:22:03.124Z,2.93
2019-05-13T03:24:34.285Z,2.40
2019-05-13T03:27:05.111Z,2.60
2019-05-13T03:29:36.081Z,2.57
2019-05-13T03:32:07.737Z,2.97
2019-05-13T03:34:44.665Z,2.70
2019-05-13T03:37:15.778Z,2.57
2019-05-13T03:39:45.662Z,2.87
2019-05-13T03:42:16.536Z,2.60
2019-05-13T03:44:52.438Z,3.30
2019-05-13T03:47:24.686Z,2.90
2019-05-13T03:50:02.333Z,2.93
2019-05-13T03:52:33.610Z,2.87
2019-05-13T03:55:04.539Z,2.53
2019-05-13T03:57:35.807Z,2.63
2019-05-13T04:00:07.196Z,2.90
2019-05-13T04:02:38.076Z,2.97
2019-05-13T04:05:09.057Z,2.83
2019-05-13T04:07:43.117Z,3.97
2019-05-13T04:10:13.212Z,3.27
2019-05-13T04:12:44.293Z,2.40
2019-05-13T04:15:15.530Z,2.63
2019-05-13T04:17:46.764Z,3.20
2019-05-13T04:20:17.727Z,2.63
2019-05-13T04:22:48.580Z,2.67
2019-05-13T04:25:22.804Z,3.30
2019-05-13T04:27:52.485Z,2.90
2019-05-13T04:30:23.433Z,3.20
2019-05-13T04:32:54.644Z,2.90
2019-05-13T04:35:25.504Z,2.50
2019-05-13T04:37:56.556Z,2.30
2019-05-13T04:40:27.440Z,2.20
2019-05-13T04:42:58.298Z,2.00
2019-05-13T04:45:32.605Z,2.60
2019-05-13T04:48:03.348Z,2.43
2019-05-13T04:50:34.132Z,2.07
2019-05-13T04:53:05.168Z,3.00
2019-05-13T04:55:36.238Z,2.50
2019-05-13T04:58:07.077Z,2.37
2019-05-13T05:01:07.590Z,2.20
2019-05-13T05:03:46.028Z,2.37
2019-05-13T05:06:42.358Z,2.50
2019-05-13T05:09:32.820Z,5.00
2019-05-13T05:12:32.050Z,2.60
2019-05-13T05:15:33.847Z,2.40
2019-05-13T05:18:45.642Z,2.10
2019-05-13T05:21:24.882Z,1.70
2019-05-13T05:24:17.771Z,2.30
2019-05-13T05:27:41.926Z,2.00
2019-05-13T05:30:41.059Z,2.07
2019-05-13T05:33:58.619Z,2.23
2019-05-13T05:37:16.124Z,2.07
2019-05-13T05:39:48.454Z,2.20
2019-05-13T05:42:21.729Z,1.90
2019-05-13T05:44:53.148Z,2.00
2019-05-13T05:47:26.954Z,1.85
2019-05-13T05:49:58.946Z,2.77
2019-05-13T05:52:31.835Z,1.67
2019-05-13T05:55:03.543Z,1.60
2019-05-13T05:57:36.300Z,1.80
2019-05-13T06:00:07.879Z,1.72
2019-05-13T06:02:42.787Z,1.70
2019-05-13T06:05:14.001Z,2.10
2019-05-13T06:07:46.040Z,1.20
2019-05-13T06:10:17.073Z,1.60
2019-05-13T06:12:48.729Z,1.40
2019-05-13T06:15:19.612Z,1.72
2019-05-13T06:17:51.818Z,1.90
2019-05-13T06:20:22.751Z,2.87
2019-05-13T06:22:54.877Z,1.92
2019-05-13T06:25:25.796Z,1.35
2019-05-13T06:27:56.753Z,1.20
2019-05-13T06:30:28.669Z,1.77
2019-05-13T06:33:01.634Z,1.55
2019-05-13T06:35:32.476Z,1.42
2019-05-13T06:38:03.559Z,1.52
2019-05-13T06:40:34.780Z,1.35
2019-05-13T06:43:05.604Z,1.75
2019-05-13T06:45:36.471Z,1.20
2019-05-13T06:48:07.382Z,1.85
2019-05-13T06:50:38.285Z,1.27
2019-05-13T06:53:09.259Z,0.70
2019-05-13T06:55:41.797Z,1.32
2019-05-13T06:58:13.478Z,1.67
2019-05-13T07:00:44.535Z,1.12
2019-05-13T07:03:15.394Z,1.40
2019-05-13T07:05:46.260Z,1.82
2019-05-13T07:08:17.238Z,0.82
2019-05-13T07:10:48.443Z,1.60
2019-05-13T07:13:21.625Z,1.40
2019-05-13T07:15:52.254Z,0.80
2019-05-13T07:18:23.288Z,0.95
2019-05-13T07:20:54.267Z,1.50
2019-05-13T07:23:25.269Z,1.57
2019-05-13T07:25:56.106Z,1.22
2019-05-13T07:28:26.942Z,1.62
2019-05-13T07:30:57.846Z,1.20
2019-05-13T07:33:28.771Z,1.05
2019-05-13T07:36:02.767Z,0.90
2019-05-13T07:38:34.053Z,1.22
2019-05-13T07:41:06.643Z,0.90
2019-05-13T07:43:37.614Z,1.42
2019-05-13T07:46:08.545Z,1.70
2019-05-13T07:48:41.566Z,1.67
2019-05-13T07:51:12.347Z,1.15
2019-05-13T07:53:43.368Z,1.42
2019-05-13T07:56:14.260Z,1.30
2019-05-13T07:58:45.120Z,2.25
2019-05-13T08:01:15.998Z,0.93
2019-05-13T08:03:46.917Z,1.55
2019-05-13T08:06:17.793Z,1.07
2019-05-13T08:08:48.683Z,1.40
2019-05-13T08:11:22.178Z,1.55
2019-05-13T08:13:52.005Z,1.20
2019-05-13T08:16:22.851Z,1.00
2019-05-13T08:18:53.711Z,1.65
2019-05-13T08:21:25.812Z,1.42
2019-05-13T08:23:56.731Z,1.45
2019-05-13T08:26:27.655Z,1.70
2019-05-13T08:29:03.181Z,1.65
2019-05-13T08:31:32.244Z,1.12
2019-05-13T08:34:03.170Z,0.75
2019-05-13T08:36:34.116Z,1.35
2019-05-13T08:39:06.776Z,1.32
2019-05-13T08:41:37.617Z,1.10
2019-05-13T08:44:08.571Z,1.20
2019-05-13T08:46:41.399Z,1.10
2019-05-13T08:49:12.123Z,0.90
2019-05-13T08:51:42.999Z,1.85
2019-05-13T08:54:14.193Z,1.40
2019-05-13T08:56:45.136Z,1.10
2019-05-13T08:59:15.961Z,1.40
2019-05-13T09:01:46.860Z,1.00
2019-05-13T09:04:17.667Z,0.95
2019-05-13T09:06:48.570Z,1.22
2019-05-13T09:09:21.857Z,1.45
2019-05-13T09:11:52.312Z,1.10
2019-05-13T09:14:23.170Z,1.05
2019-05-13T09:16:54.039Z,0.90
2019-05-13T09:19:25.895Z,1.30
2019-05-13T09:21:56.776Z,1.20
2019-05-13T09:24:35.997Z,0.85
2019-05-13T09:27:01.917Z,1.05
2019-05-13T09:29:33.366Z,0.80
2019-05-13T09:32:04.313Z,1.40
2019-05-13T09:34:35.138Z,1.12
2019-05-13T09:37:06.205Z,0.95
2019-05-13T09:39:37.034Z,0.85
2019-05-13T09:42:08.909Z,1.37
2019-05-13T09:44:41.926Z,1.42
2019-05-13T09:47:12.740Z,1.12
2019-05-13T09:49:44.692Z,1.02
2019-05-13T09:52:15.631Z,1.07
2019-05-13T09:54:46.451Z,1.32
2019-05-13T09:57:17.354Z,1.22
2019-05-13T09:59:48.190Z,1.12
2019-05-13T10:02:21.313Z,1.05
2019-05-13T10:04:51.762Z,1.30
2019-05-13T10:07:23.034Z,0.90
2019-05-13T10:09:53.919Z,0.72
2019-05-13T10:12:25.040Z,1.47
2019-05-13T10:14:55.815Z,1.57
2019-05-13T10:17:26.681Z,1.00
2019-05-13T10:19:57.541Z,1.62
2019-05-13T10:22:28.411Z,1.75
2019-05-13T10:25:02.129Z,1.52
2019-05-13T10:27:32.799Z,1.00
2019-05-13T10:30:03.963Z,1.15
2019-05-13T10:32:34.934Z,0.82
2019-05-13T10:35:06.313Z,1.05
2019-05-13T10:37:37.185Z,1.27
2019-05-13T10:40:08.210Z,1.27
2019-05-13T10:42:39.134Z,1.30
2019-05-13T10:45:12.444Z,1.02
2019-05-13T10:47:42.697Z,0.82
2019-05-13T10:50:13.549Z,1.37
2019-05-13T10:52:44.424Z,1.20
2019-05-13T10:55:15.621Z,0.98
2019-05-13T10:57:46.459Z,0.88
2019-05-13T11:00:17.971Z,0.82
2019-05-13T11:02:48.924Z,1.27
2019-05-13T11:05:22.665Z,0.95
2019-05-13T11:07:52.281Z,0.95
2019-05-13T11:10:32.593Z,0.80
2019-05-13T11:13:06.236Z,1.37
2019-05-13T11:15:40.796Z,0.65
2019-05-13T11:18:14.271Z,0.80
2019-05-13T11:20:42.067Z,1.00
2019-05-13T11:23:12.956Z,0.65
2019-05-13T11:25:43.852Z,0.62
2019-05-13T11:28:14.833Z,1.20
2019-05-13T11:30:45.868Z,1.37
2019-05-13T11:33:16.905Z,0.90
2019-05-13T11:35:47.764Z,1.15
2019-05-13T11:38:38.032Z,1.07
2019-05-13T11:41:09.194Z,0.82
2019-05-13T11:43:41.626Z,1.15
2019-05-13T11:46:12.500Z,1.27
2019-05-13T11:48:43.408Z,1.07
2019-05-13T11:51:14.337Z,1.10
2019-05-13T11:53:45.250Z,1.10
2019-05-13T11:56:16.118Z,1.10
2019-05-13T11:58:47.077Z,1.00
2019-05-13T12:01:17.939Z,1.22
2019-05-13T12:03:48.811Z,1.37
2019-05-13T12:06:22.844Z,1.10
2019-05-13T12:08:55.176Z,0.93
2019-05-13T12:11:25.444Z,1.17
2019-05-13T12:13:56.363Z,1.07
2019-05-13T12:16:28.341Z,1.10
2019-05-13T12:19:03.106Z,1.27
2019-05-13T12:21:32.066Z,0.88
2019-05-13T12:24:10.537Z,1.13
2019-05-13T12:26:35.469Z,1.10
2019-05-13T12:29:06.354Z,1.30
2019-05-13T12:31:37.267Z,1.15
2019-05-13T12:34:08.241Z,1.10
2019-05-13T12:36:42.935Z,1.07
2019-05-13T12:39:14.295Z,0.97
2019-05-13T12:41:44.222Z,1.67
2019-05-13T12:44:15.173Z,0.93
2019-05-13T12:46:50.239Z,0.98
2019-05-13T12:49:18.693Z,0.70
2019-05-13T12:51:51.658Z,0.62
2019-05-13T12:54:23.625Z,1.23
2019-05-13T12:56:54.989Z,1.40
2019-05-13T12:59:26.246Z,1.43
2019-05-13T13:01:57.412Z,0.93
2019-05-13T13:04:28.310Z,1.20
2019-05-13T13:06:59.285Z,0.97
2019-05-13T13:09:33.543Z,1.70
2019-05-13T13:12:02.739Z,0.90
2019-05-13T13:14:38.635Z,1.00
2019-05-13T13:17:06.541Z,1.13
2019-05-13T13:19:37.404Z,1.10
2019-05-13T13:22:08.396Z,1.43
2019-05-13T13:24:48.338Z,1.05
2019-05-13T13:27:19.392Z,1.27
2019-05-13T13:29:44.805Z,1.35
2019-05-13T13:32:15.673Z,1.17
2019-05-13T13:34:46.595Z,2.00
2019-05-13T13:37:17.501Z,1.30
2019-05-13T13:39:48.432Z,1.13
2019-05-13T13:42:20.364Z,1.10
2019-05-13T13:44:53.913Z,0.97
2019-05-13T13:47:24.373Z,1.17
2019-05-13T13:49:55.203Z,0.83
2019-05-13T13:52:26.035Z,2.03
2019-05-13T13:55:03.032Z,1.77
2019-05-13T13:57:32.415Z,0.80
2019-05-13T14:00:26.348Z,1.43
2019-05-13T14:02:36.979Z,1.50
2019-05-13T14:05:07.883Z,1.02
2019-05-13T14:07:41.766Z,1.60
2019-05-13T14:10:11.801Z,1.00
2019-05-13T14:12:42.671Z,1.27
2019-05-13T14:15:13.795Z,1.22
2019-05-13T14:17:44.727Z,1.10
2019-05-13T14:20:15.977Z,0.90
2019-05-13T14:22:47.027Z,1.33
2019-05-13T14:25:18.183Z,1.20
2019-05-13T14:27:49.098Z,1.20
2019-05-13T14:30:21.748Z,0.90
2019-05-13T14:32:52.988Z,1.40
2019-05-13T14:35:24.003Z,0.90
2019-05-13T14:37:54.873Z,0.93
2019-05-13T14:40:26.030Z,1.00
2019-05-13T14:42:57.652Z,0.97
2019-05-13T14:45:31.659Z,0.90
2019-05-13T14:48:01.801Z,1.00
2019-05-13T14:50:32.929Z,1.20
2019-05-13T14:53:03.745Z,1.13
2019-05-13T14:55:34.659Z,0.87
2019-05-13T14:58:05.787Z,0.63
2019-05-13T15:00:36.805Z,0.80
2019-05-13T15:03:07.730Z,1.20
2019-05-13T15:05:38.942Z,0.97
2019-05-13T15:08:09.827Z,1.27
2019-05-13T15:10:41.972Z,1.47
2019-05-13T15:13:12.880Z,1.20
2019-05-13T15:15:43.884Z,1.07
2019-05-13T15:18:14.810Z,0.90
2019-05-13T15:20:45.699Z,1.10
2019-05-13T15:23:17.300Z,1.50
2019-05-13T15:25:48.464Z,1.07
2019-05-13T15:28:22.069Z,2.23
2019-05-13T15:30:52.929Z,1.87
2019-05-13T15:33:24.322Z,0.97
2019-05-13T15:35:56.515Z,0.90
2019-05-13T15:38:27.896Z,1.00
2019-05-13T15:41:01.883Z,1.07
2019-05-13T15:43:34.306Z,1.03
2019-05-13T15:46:06.282Z,0.77
2019-05-13T15:48:39.040Z,0.97
2019-05-13T15:51:11.900Z,1.10
2019-05-13T15:53:43.887Z,0.83
2019-05-13T15:56:16.004Z,1.00
2019-05-13T15:58:48.430Z,0.90
2019-05-13T16:01:22.571Z,1.53
2019-05-13T16:03:54.716Z,0.87
2019-05-13T16:06:25.873Z,1.00
2019-05-13T16:08:56.730Z,1.63
2019-05-13T16:11:27.985Z,0.80
2019-05-13T16:13:58.992Z,1.37
2019-05-13T16:16:32.250Z,3.17
2019-05-13T16:19:02.418Z,0.90
2019-05-13T16:21:33.628Z,0.90
2019-05-13T16:24:05.327Z,1.27
2019-05-13T16:26:36.233Z,0.90
2019-05-13T16:29:07.184Z,1.57
2019-05-13T16:31:38.057Z,1.13
2019-05-13T16:34:09.076Z,1.00
2019-05-13T16:36:42.842Z,1.10
2019-05-13T16:39:12.772Z,1.00
2019-05-13T16:41:43.661Z,1.07
2019-05-13T16:44:14.568Z,1.20
2019-05-13T16:46:45.500Z,1.20
2019-05-13T16:49:16.705Z,1.50
2019-05-13T16:51:47.755Z,1.77
2019-05-13T16:54:21.783Z,1.60
2019-05-13T16:56:51.884Z,1.43
2019-05-13T16:59:23.100Z,1.17
2019-05-13T17:01:54.006Z,1.30
2019-05-13T17:04:25.011Z,1.17
2019-05-13T17:06:55.976Z,1.20
2019-05-13T17:09:27.865Z,1.17
2019-05-13T17:11:58.789Z,1.63
2019-05-13T17:14:32.037Z,1.43
2019-05-13T17:17:02.639Z,1.07
2019-05-13T17:19:35.866Z,1.00
2019-05-13T17:22:06.847Z,1.20
2019-05-13T17:24:37.706Z,1.20
2019-05-13T17:29:44.068Z,1.87
2019-05-13T17:32:15.367Z,1.63
2019-05-13T17:34:46.353Z,1.67
2019-05-13T17:37:17.250Z,1.43
2019-05-13T17:39:48.183Z,3.33
2019-05-13T17:42:21.317Z,1.57
2019-05-13T17:44:52.672Z,1.43
2019-05-13T17:47:23.828Z,1.60
2019-05-13T17:49:54.667Z,1.10
2019-05-13T17:52:25.717Z,3.60
2019-05-13T17:54:56.575Z,1.77
2019-05-13T17:57:27.485Z,2.90
2019-05-13T17:59:58.525Z,1.33
2019-05-13T18:02:31.389Z,1.30
2019-05-13T18:05:02.927Z,6.07
2019-05-13T18:07:34.194Z,2.33
2019-05-13T18:10:05.263Z,2.63
2019-05-13T18:12:36.165Z,2.07
2019-05-13T18:15:07.497Z,1.73
2019-05-13T18:17:38.500Z,2.10
2019-05-13T18:20:09.402Z,2.07
2019-05-13T18:22:42.059Z,1.80
2019-05-13T18:25:13.174Z,3.03
2019-05-13T18:27:43.971Z,1.47
2019-05-13T18:30:15.175Z,2.33
2019-05-13T18:32:46.157Z,1.77
2019-05-13T18:35:17.178Z,1.67
2019-05-13T18:37:48.054Z,1.83
2019-05-13T18:40:19.278Z,1.73
2019-05-13T18:42:51.460Z,2.97
2019-05-13T18:45:22.527Z,1.80
2019-05-13T18:47:53.354Z,2.20
2019-05-13T18:50:24.266Z,2.30
2019-05-13T18:52:55.113Z,1.50
2019-05-13T18:55:26.049Z,1.53
2019-05-13T18:57:56.922Z,2.03
2019-05-13T19:00:27.845Z,2.10
2019-05-13T19:03:01.104Z,1.73
2019-05-13T19:05:31.816Z,1.70
2019-05-13T19:08:03.637Z,1.70
2019-05-13T19:10:34.553Z,2.57
2019-05-13T19:13:05.427Z,2.07
2019-05-13T19:15:36.403Z,2.60
2019-05-13T19:18:07.423Z,2.57
2019-05-13T19:20:38.361Z,2.83
2019-05-13T19:23:11.639Z,3.13
2019-05-13T19:25:42.739Z,2.67
2019-05-13T19:28:13.814Z,3.00
2019-05-13T19:30:44.796Z,2.67
2019-05-13T19:33:15.796Z,2.27
2019-05-13T19:35:46.696Z,2.60
2019-05-13T19:38:17.639Z,2.30
2019-05-13T19:40:48.540Z,1.67
2019-05-13T19:43:21.692Z,2.30
2019-05-13T19:45:52.439Z,2.20
2019-05-13T19:48:23.531Z,1.73
2019-05-13T19:50:54.571Z,1.80
2019-05-13T19:53:25.376Z,2.13
2019-05-13T19:55:56.271Z,1.63
2019-05-13T19:58:27.167Z,1.47
2019-05-13T20:00:58.041Z,1.77
2019-05-13T20:03:31.508Z,1.60
2019-05-13T20:06:02.222Z,1.83
2019-05-13T20:08:33.408Z,2.70
2019-05-13T20:11:04.321Z,1.77
2019-05-13T20:13:35.528Z,2.00
2019-05-13T20:16:06.467Z,1.70
2019-05-13T20:18:37.384Z,1.67
2019-05-13T20:21:10.463Z,2.07
2019-05-13T20:23:41.390Z,1.50
2019-05-13T20:26:12.419Z,2.00
2019-05-13T20:28:43.303Z,1.90
2019-05-13T20:31:14.191Z,1.97
2019-05-13T20:33:45.488Z,2.60
2019-05-13T20:36:16.471Z,1.80
2019-05-13T20:38:47.431Z,2.10
2019-05-13T20:41:18.414Z,2.27
2019-05-13T20:43:51.896Z,1.57
2019-05-13T20:46:23.237Z,2.00
2019-05-13T20:48:56.709Z,2.17
2019-05-13T20:51:31.172Z,1.83
2019-05-13T20:54:02.553Z,2.97
2019-05-13T20:56:35.442Z,2.40
2019-05-13T20:59:07.719Z,2.13
2019-05-13T21:01:41.927Z,2.53
2019-05-13T21:04:14.561Z,2.03
2019-05-13T21:06:46.500Z,2.13
2019-05-13T21:09:18.631Z,2.93
2019-05-13T21:11:51.603Z,2.57
2019-05-13T21:14:24.060Z,2.70
2019-05-13T21:16:55.914Z,2.77
2019-05-13T21:19:27.033Z,1.93
2019-05-13T21:21:57.919Z,2.20
2019-05-13T21:24:28.855Z,2.23
2019-05-13T21:27:01.785Z,2.13
2019-05-13T21:29:32.488Z,2.13
2019-05-13T21:32:04.359Z,2.20
2019-05-13T21:34:36.149Z,2.57
2019-05-13T21:37:07.016Z,3.00
2019-05-13T21:39:37.900Z,1.97
2019-05-13T21:42:11.286Z,2.50
2019-05-13T21:44:42.093Z,2.20
2019-05-13T21:47:13.588Z,2.60
2019-05-13T21:49:44.586Z,2.77
2019-05-13T21:52:15.821Z,2.07
2019-05-13T21:54:46.701Z,2.60
2019-05-13T21:57:17.583Z,2.13
2019-05-13T21:59:48.464Z,2.17
2019-05-13T22:02:21.236Z,1.97
2019-05-13T22:04:51.991Z,2.70
2019-05-13T22:07:22.920Z,2.10
2019-05-13T22:09:53.874Z,2.47
2019-05-13T22:12:24.728Z,2.67
2019-05-13T22:14:55.607Z,2.87
2019-05-13T22:17:26.509Z,2.50
2019-05-13T22:19:57.477Z,2.20
2019-05-13T22:22:28.294Z,2.10
2019-05-13T22:25:01.772Z,2.30
2019-05-13T22:27:31.923Z,2.20
2019-05-13T22:30:02.855Z,1.97
2019-05-13T22:32:33.733Z,2.13
2019-05-13T22:35:04.788Z,2.70
2019-05-13T22:37:35.665Z,2.10
2019-05-13T22:40:06.800Z,2.17
2019-05-13T22:42:37.830Z,1.87
2019-05-13T22:45:08.836Z,2.37
2019-05-13T22:47:41.696Z,2.27
2019-05-13T22:50:12.662Z,2.07
2019-05-13T22:52:43.514Z,2.47
2019-05-13T22:55:14.495Z,2.90
2019-05-13T22:57:45.338Z,1.80
2019-05-13T23:00:16.418Z,2.67
2019-05-13T23:02:48.853Z,2.40
2019-05-13T23:05:21.764Z,2.40
2019-05-13T23:07:52.711Z,2.07
2019-05-13T23:10:23.597Z,2.23
2019-05-13T23:12:54.471Z,2.90
2019-05-13T23:15:25.304Z,2.40
2019-05-13T23:17:56.189Z,2.30
2019-05-13T23:20:27.049Z,2.17
2019-05-13T23:22:57.919Z,2.47
2019-05-13T23:25:28.816Z,2.87
2019-05-13T23:27:59.753Z,2.53
2019-05-13T23:30:31.252Z,2.30
2019-05-13T23:33:02.315Z,3.03
2019-05-13T23:35:34.162Z,2.30
2019-05-13T23:38:05.990Z,3.43
2019-05-13T23:40:36.773Z,4.10
2019-05-13T23:43:07.934Z,2.73
2019-05-13T23:45:38.804Z,2.63
2019-05-13T23:48:10.016Z,2.30
2019-05-13T23:50:41.512Z,1.97
2019-05-13T23:53:13.743Z,2.00
2019-05-13T23:55:44.631Z,1.87
2019-05-13T23:58:15.500Z,1.90
